Terminal Aerodrome Forecast
Issued by NWS Duluth, MN

Home | Current Version | Previous Version | Text Only | Print | Product List | Glossary On
Versions: 1 2 3 4 5 6 7 8 9 10 11 12 13 14 15 16 17 18 19 20 21 22 23 24 25 26 27 28 29 30 31 32 33 34 35 36 37 38
000
FTUS43 KDLH 251100
TAFDLH
TAF
KDLH 251131Z 2512/2612 18013KT 4SM -RASN OVC008
      TEMPO 2512/2514 2SM -FZDZ OVC003
     FM251400 24014KT 6SM BR VCSH OVC020
      TEMPO 2514/2517 2SM -SN
     FM251700 24012KT 5SM -SN SCT008 OVC020
     FM251800 29020G30KT P6SM VCSH OVC025
     FM260500 32015KT P6SM BKN030=

USA.gov is the U.S. government's official web portal to all federal, state and local government web resources and services.